Aérodrome :
LOGIN :

S'inscrire | Disclaimer

   EN    FR    IT 

 










Légende :    VFR   VFR Marginal   IFR   IFR Intensif   IFR Très Intensif
Visi : 
Plafond : 
>= 8 km
>= 3000ft
5 à 8 km
1000 à 3000 ft
1500m à 5 km
500 à 1000 ft
800 à 1500m
200 à 500 ft
< 800m
< 200 ft
Symboles :   Orages  Brouillard  Fortes neiges  Fortes précipitations  Vent > 20 kt
SIGMETs :   Divers  Orages  Givrage  Turbulence  Onde Orograph.  Cendres Volcan.







- Altitude de l'aérodrome : 587 ft
- Code IATA : XCR
- Voir les cartes d'approche


LFOK - Chalons Vatry

DERNIER METAR :
  • 221030Z AUTO 17018KT 5000 BR OVC008 M02/M03 Q1008 TEMPO 1200 SN OVC002

METARs EXPIRÉS :
  • 221000Z AUTO 17018KT 6000 OVC009 M02/M03 Q1009 TEMPO 1200 SN OVC002
  • 220930Z AUTO 17017KT 7000 BKN012 BKN018 BKN170 M03/M04 Q1009 TEMPO 1200 SN OVC002
  • 220900Z AUTO 18014KT 8000 SCT014 BKN160 M03/M04 Q1010 BECMG OVC007
  • 220830Z AUTO 17014KT 7000 FEW014 BKN160 M04/M05 Q1010 BECMG OVC007
  • 220800Z AUTO 17015KT 8000 FEW009 SCT160 BKN190 M04/M05 Q1010 BECMG OVC007

TAF TAF LFOK
Valide du 22 à 06h jusqu'au 23 à 06h UTC


220500Z 2206/2306 20012KT 6000 OVC007
TEMPO 2211/2216 1200 SN OVC002
TEMPO 2300/2305 1200 SN OVC003
Pas de NOTAMs connus pour ce terrain.



MET'MAP, la Météo Aéronautique d'un coup d'oeil ! - Copyright ORBIFLY Décembre 2007 - Disclaimer

ORBIFLY MET'MAP TEAM :

Programmation & Développement : Alexandra Zaïnal
Conception & Développement : Baudouin d'Aumeries
Co-Programmation & Développement : Marc-Olivier Méhu
Soutien technique & logistique : Manuel Goepfert

Contact : metmap@orbifly.com




SOURCES & CREDITS :

   NOAA